Time;durP1;ratioP1;P1;durP2;ratioP2;P2;SDS_P1;SDS_P2;PMS_P1;PMS_P2;Temp;Humidity;BMP_temperature;BMP_pressure;BME280_temperature;BME280_humidity;BME280_pressure;Samples;Min_cycle;Max_cycle;Signal;HPM_P1;HPM_P2
2021/07/06 00:02:23;;;;;;;5.43;1.90;;;26.80;96.30;;;;;;5076119;28;20047;-48
2021/07/06 00:04:58;;;;;;;5.13;2.30;;;26.90;96.30;;;;;;5094227;28;20144;-50
2021/07/06 00:07:27;;;;;;;6.05;2.13;;;26.90;96.40;;;;;;5090699;28;20048;-50
2021/07/06 00:09:55;;;;;;;8.48;3.05;;;26.80;96.40;;;;;;5094385;28;20068;-49
2021/07/06 00:12:24;;;;;;;3.05;1.70;;;26.90;96.50;;;;;;5094151;28;20075;-49
2021/07/06 00:14:52;;;;;;;5.32;2.20;;;26.90;96.60;;;;;;5094162;28;20572;-50
2021/07/06 00:17:20;;;;;;;3.20;2.22;;;26.90;96.60;;;;;;5093764;28;20040;-48
2021/07/06 00:19:49;;;;;;;7.50;1.83;;;26.90;96.70;;;;;;5094208;28;20044;-48
2021/07/06 00:22:18;;;;;;;4.80;2.10;;;26.80;96.90;;;;;;5094478;28;20043;-49
2021/07/06 00:24:46;;;;;;;6.97;2.05;;;26.80;96.90;;;;;;5093920;28;20040;-50
2021/07/06 00:27:14;;;;;;;12.05;2.60;;;26.80;97.00;;;;;;5093676;28;20142;-50
2021/07/06 00:29:41;;;;;;;6.00;2.75;;;26.80;97.10;;;;;;5075156;28;20054;-48
2021/07/06 00:32:09;;;;;;;5.15;2.65;;;26.80;97.10;;;;;;5093453;28;20153;-53
2021/07/06 00:34:37;;;;;;;4.40;2.22;;;26.80;97.10;;;;;;5093747;28;20167;-49
2021/07/06 00:37:05;;;;;;;4.28;2.17;;;26.80;97.20;;;;;;5091946;28;20048;-48
2021/07/06 00:39:32;;;;;;;3.65;1.92;;;26.80;97.20;;;;;;5093318;28;20044;-48
2021/07/06 00:42:07;;;;;;;6.22;2.45;;;26.80;97.20;;;;;;5093588;28;20123;-48
2021/07/06 00:44:35;;;;;;;4.43;1.60;;;26.80;97.30;;;;;;5093094;28;20105;-50
2021/07/06 00:47:05;;;;;;;7.05;2.53;;;26.80;97.30;;;;;;5093556;28;20047;-50
2021/07/06 00:49:34;;;;;;;5.82;1.92;;;26.80;97.30;;;;;;5093136;28;20085;-49
2021/07/06 00:52:01;;;;;;;4.95;2.28;;;26.80;97.40;;;;;;5093238;28;20040;-48
2021/07/06 00:54:29;;;;;;;3.85;1.65;;;26.80;97.40;;;;;;5093374;28;20048;-50
2021/07/06 00:56:58;;;;;;;7.85;2.67;;;26.80;97.50;;;;;;5085965;28;20048;-51
2021/07/06 00:59:25;;;;;;;7.13;2.50;;;26.80;97.60;;;;;;5074995;28;20044;-50
2021/07/06 01:01:53;;;;;;;5.70;3.00;;;26.70;97.70;;;;;;5083017;28;20040;-48
2021/07/06 01:04:21;;;;;;;6.13;2.05;;;26.70;97.90;;;;;;5089402;28;20040;-50
2021/07/06 01:06:48;;;;;;;7.20;2.80;;;26.70;98.00;;;;;;5093275;28;20448;-50
2021/07/06 01:09:16;;;;;;;6.38;2.67;;;26.70;98.10;;;;;;5092801;28;20051;-49
2021/07/06 01:11:43;;;;;;;7.97;2.88;;;26.60;98.10;;;;;;5074725;28;20043;-48
2021/07/06 01:14:11;;;;;;;5.05;2.17;;;26.60;98.20;;;;;;5092498;28;20044;-49
2021/07/06 01:16:44;;;;;;;4.68;2.90;;;26.60;98.20;;;;;;5092896;28;20040;-50
2021/07/06 01:19:14;;;;;;;7.25;2.40;;;26.60;98.30;;;;;;5075459;28;20052;-48
2021/07/06 01:21:42;;;;;;;7.07;2.90;;;26.60;98.30;;;;;;5092603;28;20058;-51
2021/07/06 01:24:10;;;;;;;7.68;2.53;;;26.50;98.40;;;;;;5092628;28;20052;-49
2021/07/06 01:26:37;;;;;;;3.45;1.95;;;26.60;98.50;;;;;;5093465;28;20036;-53
2021/07/06 01:29:05;;;;;;;13.23;3.25;;;26.50;98.60;;;;;;5075259;28;20067;-50
2021/07/06 01:31:32;;;;;;;5.57;2.20;;;26.50;98.90;;;;;;5093448;28;20032;-50
2021/07/06 01:34:00;;;;;;;5.25;2.80;;;26.50;98.70;;;;;;5093894;28;20093;-49
2021/07/06 01:36:27;;;;;;;6.85;2.55;;;26.50;98.70;;;;;;5093200;28;20044;-51
2021/07/06 01:38:55;;;;;;;4.88;2.63;;;26.50;98.80;;;;;;5093095;28;20050;-50
2021/07/06 01:41:22;;;;;;;5.95;3.03;;;26.60;98.80;;;;;;5074734;28;20044;-53
2021/07/06 01:43:50;;;;;;;5.40;3.17;;;26.50;98.90;;;;;;5093206;28;20040;-53
2021/07/06 01:46:17;;;;;;;8.70;3.17;;;26.60;98.90;;;;;;5093829;28;20119;-52
2021/07/06 01:48:45;;;;;;;5.22;2.90;;;26.70;98.90;;;;;;5074939;28;20557;-48
2021/07/06 01:51:12;;;;;;;6.00;2.25;;;26.60;98.90;;;;;;5075183;28;20074;-50
2021/07/06 01:53:40;;;;;;;8.02;3.90;;;26.70;98.90;;;;;;5092716;28;20448;-48
2021/07/06 01:56:08;;;;;;;7.97;3.17;;;26.70;98.90;;;;;;5075275;28;20097;-49
2021/07/06 01:58:35;;;;;;;5.68;2.72;;;26.70;98.90;;;;;;5093001;28;20047;-49
2021/07/06 02:01:03;;;;;;;6.63;2.97;;;26.70;99.00;;;;;;5093566;28;20433;-49
2021/07/06 02:03:32;;;;;;;8.25;2.83;;;26.70;99.20;;;;;;5073508;28;20398;-49
2021/07/06 02:05:59;;;;;;;7.50;2.92;;;26.70;99.00;;;;;;5074797;28;20050;-51
2021/07/06 02:08:31;;;;;;;11.80;2.55;;;26.70;99.00;;;;;;5092596;28;20032;-51
2021/07/06 02:10:59;;;;;;;3.88;2.20;;;26.70;99.10;;;;;;5092905;28;20048;-51
2021/07/06 02:13:27;;;;;;;8.45;2.65;;;26.60;99.20;;;;;;5092867;28;20043;-48
2021/07/06 02:15:56;;;;;;;4.88;2.80;;;26.60;99.50;;;;;;5075307;28;20040;-53
2021/07/06 02:18:27;;;;;;;3.92;2.67;;;26.60;99.50;;;;;;5092890;28;20040;-51
2021/07/06 02:20:56;;;;;;;8.70;2.50;;;26.60;99.60;;;;;;5092638;28;20056;-53
2021/07/06 02:23:25;;;;;;;6.28;3.20;;;26.50;99.70;;;;;;5092676;28;20043;-49
2021/07/06 02:25:54;;;;;;;7.57;3.05;;;26.50;99.80;;;;;;5084044;28;20040;-50
2021/07/06 02:28:21;;;;;;;11.32;3.20;;;26.50;99.80;;;;;;5088909;28;20040;-50
2021/07/06 02:30:49;;;;;;;5.20;2.90;;;26.60;99.90;;;;;;5092558;28;20071;-51
2021/07/06 02:33:18;;;;;;;6.60;2.58;;;26.60;99.90;;;;;;5092758;28;20036;-52
2021/07/06 02:35:47;;;;;;;7.95;3.30;;;26.50;99.90;;;;;;5092332;28;20110;-50
2021/07/06 02:38:16;;;;;;;8.32;3.17;;;26.50;99.90;;;;;;5041521;28;20044;-49
2021/07/06 02:40:44;;;;;;;6.72;3.15;;;26.50;99.90;;;;;;5092622;28;20045;-51
2021/07/06 02:43:11;;;;;;;7.70;2.65;;;26.60;99.90;;;;;;5092892;28;20059;-49
2021/07/06 02:45:39;;;;;;;5.50;2.92;;;26.50;99.90;;;;;;5092551;28;20355;-51
2021/07/06 02:48:09;;;;;;;5.85;2.88;;;26.50;99.90;;;;;;5092155;28;20583;-50
2021/07/06 02:50:39;;;;;;;5.00;3.13;;;26.50;99.90;;;;;;5092580;28;20044;-50
2021/07/06 02:53:11;;;;;;;6.75;2.53;;;26.50;99.90;;;;;;5092867;28;20044;-50
2021/07/06 02:55:40;;;;;;;7.05;3.22;;;26.40;99.90;;;;;;5092191;28;20486;-53
2021/07/06 02:58:09;;;;;;;8.02;2.45;;;26.50;99.90;;;;;;5072852;28;20490;-52
2021/07/06 03:00:37;;;;;;;7.53;3.15;;;26.40;99.90;;;;;;5092285;28;20047;-48
2021/07/06 03:03:10;;;;;;;6.38;3.53;;;26.40;99.90;;;;;;5092391;28;20050;-49
2021/07/06 03:05:40;;;;;;;9.38;3.50;;;26.40;99.90;;;;;;5092141;28;20056;-50
2021/07/06 03:08:07;;;;;;;6.03;2.83;;;26.40;99.90;;;;;;5092120;28;20037;-49
2021/07/06 03:10:37;;;;;;;5.22;2.55;;;26.40;99.90;;;;;;5074530;28;20093;-49
2021/07/06 03:13:05;;;;;;;10.57;2.38;;;26.40;99.90;;;;;;5072955;28;20040;-53
2021/07/06 03:15:33;;;;;;;7.32;3.35;;;26.30;99.90;;;;;;5093951;28;20040;-50
2021/07/06 03:18:02;;;;;;;9.38;2.72;;;26.30;99.90;;;;;;5096199;28;20044;-49
2021/07/06 03:20:30;;;;;;;6.63;2.75;;;26.30;99.90;;;;;;5095825;28;20113;-50
2021/07/06 03:22:58;;;;;;;9.50;3.08;;;26.30;99.90;;;;;;5078133;28;20028;-48
2021/07/06 03:25:27;;;;;;;5.32;2.83;;;26.30;99.90;;;;;;5078174;28;20054;-50
2021/07/06 03:27:56;;;;;;;8.38;3.30;;;26.30;99.90;;;;;;5077622;28;20056;-49
2021/07/06 03:30:27;;;;;;;7.53;3.65;;;26.30;99.90;;;;;;5077702;28;20066;-50
2021/07/06 03:32:56;;;;;;;5.82;3.13;;;26.30;99.90;;;;;;5095625;28;20047;-49
2021/07/06 03:35:25;;;;;;;6.63;3.08;;;26.30;99.90;;;;;;5095348;28;20036;-52
2021/07/06 03:37:55;;;;;;;8.73;2.55;;;26.30;99.90;;;;;;5086936;28;20043;-49
2021/07/06 03:40:22;;;;;;;5.20;2.38;;;26.30;99.90;;;;;;5092108;28;20040;-51
2021/07/06 03:42:51;;;;;;;6.47;2.80;;;26.30;99.90;;;;;;5077550;28;20044;-49
2021/07/06 03:45:20;;;;;;;9.18;2.70;;;26.30;99.90;;;;;;5095362;28;20058;-50
2021/07/06 03:47:48;;;;;;;5.53;2.67;;;26.30;99.90;;;;;;5095209;28;20087;-50
2021/07/06 03:50:21;;;;;;;8.35;3.28;;;26.30;99.90;;;;;;5095643;28;20101;-52
2021/07/06 03:52:58;;;;;;;6.45;3.10;;;26.30;99.90;;;;;;5095587;28;20035;-48
2021/07/06 03:55:27;;;;;;;6.28;2.95;;;26.30;99.90;;;;;;5056934;28;20044;-48
2021/07/06 03:57:55;;;;;;;9.52;3.80;;;26.40;99.90;;;;;;5077431;28;20102;-49
2021/07/06 04:00:29;;;;;;;6.30;2.55;;;26.40;99.90;;;;;;5095362;28;20055;-51
2021/07/06 04:02:57;;;;;;;8.65;3.08;;;26.40;99.90;;;;;;5088449;28;20055;-49
2021/07/06 04:05:25;;;;;;;8.85;3.10;;;26.50;99.90;;;;;;5077235;28;20074;-50
2021/07/06 04:07:53;;;;;;;6.47;2.92;;;26.50;99.90;;;;;;5086293;28;20051;-54
2021/07/06 04:10:21;;;;;;;6.88;2.40;;;26.50;99.90;;;;;;5060695;28;20048;-49
2021/07/06 04:12:49;;;;;;;7.97;3.78;;;26.50;99.90;;;;;;5095120;28;20039;-52
2021/07/06 04:15:18;;;;;;;8.48;2.78;;;26.50;99.90;;;;;;5095107;28;20040;-51
2021/07/06 04:17:46;;;;;;;6.90;2.50;;;26.50;99.90;;;;;;5095026;28;20070;-51
2021/07/06 04:20:15;;;;;;;7.35;2.65;;;26.50;99.90;;;;;;5094884;28;20516;-51
2021/07/06 04:22:44;;;;;;;5.75;2.47;;;26.60;99.90;;;;;;5094651;28;20423;-54
2021/07/06 04:25:12;;;;;;;7.88;2.55;;;26.60;99.90;;;;;;5095453;28;20048;-51
2021/07/06 04:27:42;;;;;;;5.07;2.42;;;26.60;99.90;;;;;;5093600;28;20485;-51
2021/07/06 04:30:10;;;;;;;9.85;3.15;;;26.80;99.90;;;;;;5094706;28;20044;-51
2021/07/06 04:32:38;;;;;;;6.57;2.72;;;26.80;99.90;;;;;;5094588;28;20097;-50
2021/07/06 04:35:06;;;;;;;7.07;3.35;;;26.90;99.90;;;;;;5094651;28;20583;-50
2021/07/06 04:37:34;;;;;;;10.75;3.00;;;27.00;99.90;;;;;;5094212;28;20050;-51
2021/07/06 04:40:03;;;;;;;9.73;2.95;;;27.20;99.90;;;;;;5095108;28;20048;-52
2021/07/06 04:42:31;;;;;;;7.57;3.20;;;27.20;99.90;;;;;;5094630;28;20044;-50
2021/07/06 04:44:58;;;;;;;4.75;2.63;;;27.30;99.90;;;;;;5087123;28;20506;-51
2021/07/06 04:47:26;;;;;;;5.95;2.72;;;27.40;99.90;;;;;;5059240;28;20135;-51
2021/07/06 04:49:54;;;;;;;4.68;2.33;;;27.40;99.90;;;;;;5067403;28;20425;-50
2021/07/06 04:52:21;;;;;;;5.53;3.20;;;27.40;99.90;;;;;;5090518;28;20051;-50
2021/07/06 04:54:49;;;;;;;7.28;2.92;;;27.60;99.90;;;;;;5094909;28;20067;-50
2021/07/06 04:57:21;;;;;;;5.90;2.17;;;27.70;99.80;;;;;;5094128;28;20093;-51
2021/07/06 04:59:49;;;;;;;4.32;2.17;;;27.80;99.50;;;;;;5094097;28;20040;-53
2021/07/06 05:02:18;;;;;;;7.05;2.10;;;28.00;99.30;;;;;;5076286;28;20062;-51
2021/07/06 05:04:45;;;;;;;4.75;2.75;;;28.00;99.20;;;;;;5094109;28;20054;-54
2021/07/06 05:07:13;;;;;;;5.30;2.10;;;28.20;99.00;;;;;;5094572;28;20040;-53
2021/07/06 05:09:41;;;;;;;9.55;3.42;;;28.10;98.90;;;;;;5093820;28;20436;-50
2021/07/06 05:12:08;;;;;;;4.95;2.13;;;28.10;99.00;;;;;;5094157;28;20044;-51
2021/07/06 05:14:36;;;;;;;6.25;2.95;;;28.10;98.90;;;;;;5093639;28;20040;-54
2021/07/06 05:17:04;;;;;;;5.72;3.05;;;28.10;98.90;;;;;;5093691;28;20475;-55
2021/07/06 05:19:31;;;;;;;7.72;2.60;;;28.00;98.70;;;;;;5075559;28;20067;-54
2021/07/06 05:21:59;;;;;;;5.85;2.35;;;27.90;98.60;;;;;;5094040;28;20055;-54
2021/07/06 05:24:26;;;;;;;13.93;2.90;;;27.80;98.60;;;;;;5093508;28;20052;-52
2021/07/06 05:26:54;;;;;;;4.47;1.90;;;27.70;98.60;;;;;;5075606;28;20040;-53
2021/07/06 05:29:21;;;;;;;5.75;2.53;;;27.70;98.60;;;;;;5093166;28;20083;-54
2021/07/06 05:31:49;;;;;;;6.47;3.17;;;27.70;98.70;;;;;;5093260;28;20101;-53
2021/07/06 05:34:18;;;;;;;5.93;2.15;;;27.80;98.60;;;;;;5075855;28;20044;-54
2021/07/06 05:36:47;;;;;;;5.50;2.70;;;27.70;98.50;;;;;;5093398;28;20044;-51
2021/07/06 05:39:15;;;;;;;4.68;2.05;;;27.80;98.20;;;;;;5093291;28;20047;-53
2021/07/06 05:41:43;;;;;;;6.72;2.60;;;27.90;97.90;;;;;;5075500;28;20044;-55
2021/07/06 05:44:12;;;;;;;4.03;2.70;;;27.90;97.70;;;;;;5093203;28;20064;-50
2021/07/06 05:46:40;;;;;;;6.60;2.75;;;28.00;97.60;;;;;;5093019;28;20051;-50
2021/07/06 05:49:07;;;;;;;7.30;2.00;;;28.10;97.50;;;;;;5093493;28;20041;-53
2021/07/06 05:51:36;;;;;;;5.38;2.25;;;28.20;97.30;;;;;;5058227;28;20490;-54
2021/07/06 05:54:04;;;;;;;6.00;2.10;;;28.30;97.10;;;;;;5093278;28;20047;-55
2021/07/06 05:56:33;;;;;;;8.23;2.40;;;28.40;96.90;;;;;;5093239;28;20040;-55
2021/07/06 05:59:01;;;;;;;6.88;2.63;;;28.40;96.70;;;;;;5074934;28;20130;-53
2021/07/06 06:01:31;;;;;;;5.88;2.53;;;28.60;96.70;;;;;;5092861;28;20048;-52
2021/07/06 06:03:58;;;;;;;6.00;2.58;;;28.80;96.30;;;;;;5092622;28;20040;-52
2021/07/06 06:06:26;;;;;;;5.05;2.60;;;29.10;96.00;;;;;;5075140;28;20511;-52
2021/07/06 06:08:54;;;;;;;4.88;3.10;;;29.30;95.70;;;;;;5075092;28;20082;-51
2021/07/06 06:11:22;;;;;;;5.03;2.03;;;29.40;95.40;;;;;;5092381;28;20051;-54
2021/07/06 06:13:50;;;;;;;4.75;2.13;;;29.50;95.10;;;;;;5092720;28;20043;-53
2021/07/06 06:16:18;;;;;;;11.18;3.67;;;29.70;95.20;;;;;;5093457;28;20044;-54
2021/07/06 06:18:46;;;;;;;3.00;1.73;;;29.80;95.10;;;;;;5092754;28;20047;-54
2021/07/06 06:21:13;;;;;;;4.95;2.33;;;30.10;94.60;;;;;;5092988;28;20071;-51
2021/07/06 06:23:41;;;;;;;13.65;2.88;;;30.20;94.10;;;;;;5074524;28;20497;-55
2021/07/06 06:26:09;;;;;;;5.93;2.15;;;30.10;94.10;;;;;;5092568;28;20036;-53
2021/07/06 06:28:40;;;;;;;6.75;2.30;;;30.20;94.00;;;;;;5092596;28;20040;-56
2021/07/06 06:31:08;;;;;;;6.53;1.92;;;30.20;93.80;;;;;;5089928;28;20378;-57
2021/07/06 06:33:35;;;;;;;7.40;2.13;;;30.20;93.80;;;;;;5092695;28;20508;-56
2021/07/06 06:36:03;;;;;;;7.15;2.20;;;30.50;93.70;;;;;;5092736;28;20054;-52
2021/07/06 06:38:31;;;;;;;10.95;2.83;;;30.60;93.50;;;;;;5074914;28;20040;-56
2021/07/06 06:40:59;;;;;;;3.47;2.10;;;30.80;93.40;;;;;;5092597;28;20032;-52
2021/07/06 06:43:26;;;;;;;5.13;2.13;;;31.10;93.30;;;;;;5092125;28;20390;-55
2021/07/06 06:45:54;;;;;;;5.60;2.28;;;31.20;93.20;;;;;;5074445;28;20044;-56
2021/07/06 06:48:21;;;;;;;5.68;2.45;;;31.20;93.10;;;;;;5092664;28;20056;-53
2021/07/06 06:50:49;;;;;;;4.45;1.77;;;31.00;92.90;;;;;;5095010;28;20040;-56
2021/07/06 06:53:16;;;;;;;5.63;2.00;;;30.80;93.00;;;;;;5096427;28;20044;-53
2021/07/06 06:55:44;;;;;;;3.90;2.47;;;30.70;93.30;;;;;;5078656;28;20505;-55
2021/07/06 06:58:12;;;;;;;3.90;2.15;;;30.70;93.40;;;;;;5096452;28;20044;-56
2021/07/06 07:00:39;;;;;;;4.65;2.10;;;30.80;93.40;;;;;;5096081;28;20047;-56
2021/07/06 07:03:07;;;;;;;7.93;2.60;;;30.90;93.30;;;;;;5096183;28;20094;-55
2021/07/06 07:05:35;;;;;;;4.38;2.33;;;31.00;93.00;;;;;;5095726;28;20033;-55
2021/07/06 07:08:04;;;;;;;7.75;2.70;;;31.20;92.90;;;;;;5077704;28;20512;-56
2021/07/06 07:10:31;;;;;;;8.40;2.90;;;31.40;92.60;;;;;;5077501;28;20516;-56
2021/07/06 07:12:59;;;;;;;6.00;4.03;;;31.30;92.50;;;;;;5095796;28;20040;-55
2021/07/06 07:15:27;;;;;;;4.63;2.70;;;31.20;92.60;;;;;;5077197;28;20135;-54
2021/07/06 07:17:54;;;;;;;4.57;2.28;;;31.10;92.70;;;;;;5077381;28;20352;-56
2021/07/06 07:20:22;;;;;;;4.60;3.03;;;31.10;92.60;;;;;;5077398;28;20044;-55
2021/07/06 07:22:50;;;;;;;6.60;2.35;;;31.20;92.70;;;;;;5095347;28;20032;-55
2021/07/06 07:25:20;;;;;;;7.00;2.40;;;31.40;92.50;;;;;;5095563;28;20437;-55
2021/07/06 07:27:48;;;;;;;5.68;2.13;;;31.40;92.20;;;;;;5095424;28;20539;-54
2021/07/06 07:30:18;;;;;;;4.22;1.77;;;31.50;92.00;;;;;;5094887;28;20081;-57
2021/07/06 07:32:47;;;;;;;6.10;1.88;;;31.50;91.60;;;;;;5094703;28;20383;-55
2021/07/06 07:35:16;;;;;;;10.35;2.28;;;31.60;91.50;;;;;;5094863;28;20115;-56
2021/07/06 07:37:45;;;;;;;4.70;2.67;;;31.60;91.40;;;;;;5094973;28;20044;-54
2021/07/06 07:40:14;;;;;;;4.47;2.13;;;31.80;91.30;;;;;;5095508;28;20044;-56
2021/07/06 07:42:42;;;;;;;8.05;2.72;;;31.70;91.30;;;;;;5076661;28;20059;-56
2021/07/06 07:45:11;;;;;;;5.35;1.85;;;31.60;91.40;;;;;;5094916;28;20097;-57
2021/07/06 07:47:38;;;;;;;8.85;2.60;;;31.70;91.60;;;;;;5094253;28;20042;-55
2021/07/06 07:50:07;;;;;;;4.50;1.88;;;31.90;91.50;;;;;;5094527;28;20040;-56
2021/07/06 07:52:35;;;;;;;6.13;2.97;;;32.00;91.10;;;;;;5094459;28;20081;-53
2021/07/06 07:55:06;;;;;;;4.80;2.45;;;32.10;90.90;;;;;;5077327;28;20067;-56
2021/07/06 07:57:33;;;;;;;4.97;2.80;;;32.10;90.80;;;;;;5094607;28;20044;-57
2021/07/06 08:00:02;;;;;;;8.73;1.90;;;32.10;90.90;;;;;;5076366;28;20040;-56
2021/07/06 08:02:38;;;;;;;5.90;2.08;;;32.30;90.80;;;;;;5093043;28;20036;-58
2021/07/06 08:05:06;;;;;;;5.07;2.13;;;32.30;90.70;;;;;;5093952;28;20040;-56
2021/07/06 08:07:34;;;;;;;4.78;2.70;;;32.40;90.60;;;;;;5075629;28;20044;-57
2021/07/06 08:10:02;;;;;;;4.75;2.35;;;32.40;90.30;;;;;;5076487;28;20055;-57
2021/07/06 08:12:29;;;;;;;3.80;2.05;;;32.40;90.30;;;;;;5094416;28;20428;-57
2021/07/06 08:14:57;;;;;;;4.00;2.20;;;32.50;90.30;;;;;;5086712;28;20131;-57
2021/07/06 08:17:25;;;;;;;3.88;2.20;;;32.60;90.20;;;;;;5093899;28;20044;-57
2021/07/06 08:19:59;;;;;;;5.25;2.00;;;32.50;90.20;;;;;;5094191;28;20056;-57
2021/07/06 08:22:27;;;;;;;5.03;2.58;;;32.60;90.10;;;;;;5090419;28;20046;-56
2021/07/06 08:24:55;;;;;;;5.30;2.20;;;32.60;89.90;;;;;;5094300;28;20048;-58
2021/07/06 08:27:23;;;;;;;4.82;2.10;;;32.60;89.90;;;;;;5059057;28;20040;-57
2021/07/06 08:29:50;;;;;;;4.32;2.50;;;32.60;90.00;;;;;;5093849;28;20414;-57
2021/07/06 08:32:18;;;;;;;7.43;2.20;;;32.60;89.60;;;;;;5093620;28;20044;-57
2021/07/06 08:34:45;;;;;;;9.63;2.92;;;32.70;90.00;;;;;;5094014;28;20113;-58
2021/07/06 08:37:13;;;;;;;6.72;2.17;;;32.80;89.60;;;;;;5094507;28;20040;-57
2021/07/06 08:39:41;;;;;;;3.30;2.00;;;32.80;89.00;;;;;;5093833;28;20445;-57
2021/07/06 08:42:09;;;;;;;7.85;2.72;;;32.70;89.00;;;;;;5093389;28;20490;-57
2021/07/06 08:44:39;;;;;;;5.45;2.10;;;32.70;88.50;;;;;;5093495;28;20171;-57
2021/07/06 08:47:09;;;;;;;7.43;2.30;;;32.80;89.00;;;;;;5075340;28;20044;-57
2021/07/06 08:49:39;;;;;;;5.65;2.53;;;32.80;87.80;;;;;;5093358;28;20052;-58
2021/07/06 08:52:11;;;;;;;6.63;2.60;;;32.70;88.30;;;;;;5092312;28;20131;-59
2021/07/06 08:54:39;;;;;;;4.55;2.35;;;32.80;88.60;;;;;;5093290;28;20470;-57
2021/07/06 08:57:07;;;;;;;5.13;2.53;;;32.70;88.90;;;;;;5093643;28;20402;-57
2021/07/06 08:59:38;;;;;;;5.75;3.00;;;32.80;88.20;;;;;;5093191;28;20564;-57
2021/07/06 09:02:10;;;;;;;6.68;2.45;;;32.70;88.60;;;;;;5093399;28;20115;-57
2021/07/06 09:04:47;;;;;;;7.38;2.55;;;32.80;89.00;;;;;;5093399;28;20439;-57
2021/07/06 09:07:15;;;;;;;6.57;3.35;;;32.80;88.80;;;;;;5092718;28;20134;-58
2021/07/06 09:09:43;;;;;;;4.25;2.20;;;32.80;88.70;;;;;;5093125;28;20059;-57
2021/07/06 09:12:12;;;;;;;4.78;2.40;;;32.70;87.50;;;;;;5074795;28;20048;-58
2021/07/06 09:14:44;;;;;;;5.05;2.30;;;32.70;87.50;;;;;;5074838;28;20068;-57
2021/07/06 09:17:14;;;;;;;5.85;2.97;;;32.70;87.40;;;;;;5093117;28;20501;-57
2021/07/06 09:19:46;;;;;;;7.20;2.40;;;32.80;86.80;;;;;;5092288;28;20490;-57
2021/07/06 09:22:17;;;;;;;5.18;2.80;;;32.80;86.20;;;;;;5094057;28;20044;-58
2021/07/06 09:24:48;;;;;;;5.20;2.58;;;32.80;86.80;;;;;;5093449;28;20040;-57
2021/07/06 09:27:26;;;;;;;6.80;3.22;;;33.00;86.80;;;;;;5093217;28;20482;-58
2021/07/06 09:30:18;;;;;;;7.45;2.72;;;33.00;87.10;;;;;;5093312;28;20040;-57
2021/07/06 09:32:56;;;;;;;5.38;2.42;;;32.80;86.60;;;;;;5092950;28;20048;-58
2021/07/06 09:35:26;;;;;;;10.68;2.50;;;32.80;86.20;;;;;;5093196;28;20076;-57
2021/07/06 09:38:02;;;;;;;5.40;2.42;;;32.80;86.50;;;;;;5084511;28;20040;-58
2021/07/06 09:40:32;;;;;;;8.02;2.58;;;32.60;87.40;;;;;;5071869;28;20137;-58
2021/07/06 09:43:22;;;;;;;6.53;2.55;;;32.80;87.50;;;;;;5092990;28;20067;-58
2021/07/06 09:45:54;;;;;;;5.63;2.38;;;32.90;86.90;;;;;;5093348;28;20051;-58
2021/07/06 09:48:22;;;;;;;10.73;2.83;;;33.00;86.50;;;;;;5092780;28;20048;-58
2021/07/06 09:50:50;;;;;;;11.73;3.95;;;32.90;86.30;;;;;;5074718;28;20699;-58
2021/07/06 09:53:32;;;;;;;6.97;2.25;;;33.00;85.70;;;;;;5074588;28;20044;-56
2021/07/06 09:56:11;;;;;;;6.32;2.40;;;32.70;86.00;;;;;;5084929;28;20490;-57
2021/07/06 09:59:03;;;;;;;6.82;3.28;;;32.70;86.70;;;;;;5092910;28;20127;-58
2021/07/06 10:01:30;;;;;;;4.07;2.35;;;32.80;86.90;;;;;;5092345;28;20048;-57
2021/07/06 10:03:59;;;;;;;7.50;2.70;;;32.80;86.20;;;;;;5075131;28;20054;-58
2021/07/06 10:06:28;;;;;;;8.57;3.00;;;33.00;85.50;;;;;;5092646;28;20523;-57
2021/07/06 10:08:57;;;;;;;4.22;2.13;;;33.00;85.30;;;;;;5085727;28;20044;-57
2021/07/06 10:11:25;;;;;;;6.88;2.40;;;33.10;85.50;;;;;;5092208;28;20113;-58
2021/07/06 10:13:55;;;;;;;6.95;2.92;;;33.10;85.10;;;;;;5083953;28;20060;-58
2021/07/06 10:16:27;;;;;;;6.43;2.63;;;33.10;84.70;;;;;;5071608;28;20477;-58
2021/07/06 10:18:56;;;;;;;4.88;2.85;;;33.10;84.50;;;;;;5092889;28;20044;-58
2021/07/06 10:21:25;;;;;;;3.92;2.42;;;33.10;84.70;;;;;;5057876;28;20055;-57
2021/07/06 10:23:53;;;;;;;6.55;2.88;;;32.90;84.40;;;;;;5091987;28;20043;-59
2021/07/06 10:26:25;;;;;;;7.38;3.08;;;32.90;85.30;;;;;;5091767;28;20066;-58
2021/07/06 10:28:54;;;;;;;4.80;2.60;;;32.90;84.60;;;;;;5083657;28;20032;-58
2021/07/06 10:31:24;;;;;;;9.95;2.80;;;33.00;83.60;;;;;;5074213;28;20493;-58
2021/07/06 10:33:53;;;;;;;5.10;2.70;;;32.90;84.30;;;;;;5093016;28;20043;-58
2021/07/06 10:36:38;;;;;;;7.18;2.90;;;33.00;84.90;;;;;;5092493;28;20044;-58
2021/07/06 10:39:07;;;;;;;5.38;2.58;;;33.10;84.20;;;;;;5086715;28;20047;-58
2021/07/06 10:41:35;;;;;;;4.80;2.22;;;33.10;84.60;;;;;;5092041;28;20036;-58
2021/07/06 10:44:05;;;;;;;6.18;2.95;;;33.00;82.40;;;;;;5091357;28;20048;-58
2021/07/06 10:46:39;;;;;;;5.55;2.35;;;33.00;82.60;;;;;;5092735;28;20131;-58
2021/07/06 10:49:14;;;;;;;5.82;3.10;;;32.80;82.90;;;;;;5090429;28;20406;-59
2021/07/06 10:51:49;;;;;;;4.90;2.92;;;32.80;82.70;;;;;;5091993;28;20519;-58
2021/07/06 10:54:20;;;;;;;7.37;3.67;;;32.90;81.90;;;;;;5092304;28;20074;-58
2021/07/06 10:56:57;;;;;;;8.93;3.45;;;32.90;83.30;;;;;;5092077;28;20397;-58
2021/07/06 10:59:35;;;;;;;5.63;2.75;;;32.90;83.30;;;;;;5091536;28;20123;-58
2021/07/06 11:02:06;;;;;;;5.28;2.90;;;32.80;82.50;;;;;;5084575;28;20120;-55
2021/07/06 11:04:44;;;;;;;4.57;2.67;;;32.70;82.30;;;;;;5092260;28;20079;-55
2021/07/06 11:07:17;;;;;;;6.80;3.20;;;32.70;81.40;;;;;;5091377;28;20044;-55
2021/07/06 11:09:47;;;;;;;5.15;2.45;;;32.60;82.50;;;;;;5091979;28;20048;-56
2021/07/06 11:12:22;;;;;;;6.88;3.03;;;32.60;82.70;;;;;;5091154;28;20127;-56
2021/07/06 11:14:53;;;;;;;9.23;2.87;;;32.60;83.00;;;;;;5073114;28;20490;-56
2021/07/06 11:17:34;;;;;;;4.93;3.50;;;32.70;82.70;;;;;;5090828;28;20051;-55
2021/07/06 11:20:07;;;;;;;9.25;2.65;;;32.70;82.90;;;;;;5083729;28;20103;-56
2021/07/06 11:22:55;;;;;;;5.68;2.42;;;32.70;82.60;;;;;;5090898;28;20131;-55
2021/07/06 11:25:37;;;;;;;4.55;2.33;;;32.70;82.60;;;;;;5087259;28;20493;-56
2021/07/06 11:28:13;;;;;;;7.10;3.08;;;32.70;83.00;;;;;;5089128;28;20052;-56
2021/07/06 11:30:45;;;;;;;8.68;2.67;;;32.70;82.90;;;;;;5091071;28;20044;-56
2021/07/06 11:33:22;;;;;;;6.75;2.63;;;32.70;82.80;;;;;;5090740;28;20398;-56
2021/07/06 11:35:53;;;;;;;7.13;2.90;;;32.70;83.20;;;;;;5091369;28;20115;-56
2021/07/06 11:38:23;;;;;;;5.45;2.80;;;32.70;82.90;;;;;;5094467;28;20048;-56
2021/07/06 11:40:56;;;;;;;25.58;5.40;;;32.50;81.50;;;;;;5094236;28;20067;-56
2021/07/06 11:43:26;;;;;;;11.32;3.60;;;32.50;82.30;;;;;;5090503;28;20531;-55
2021/07/06 11:45:57;;;;;;;5.10;3.08;;;32.60;82.40;;;;;;5094126;28;20044;-56
2021/07/06 11:48:30;;;;;;;7.15;3.15;;;32.60;82.40;;;;;;5093939;28;20052;-56
2021/07/06 11:50:59;;;;;;;7.65;3.05;;;32.70;82.60;;;;;;5094186;28;20460;-56
2021/07/06 11:53:29;;;;;;;4.60;2.95;;;32.50;82.40;;;;;;5076032;28;20047;-56
2021/07/06 11:55:58;;;;;;;4.53;2.80;;;32.50;81.60;;;;;;5086029;28;20048;-56
2021/07/06 11:58:27;;;;;;;6.20;3.10;;;32.60;81.00;;;;;;5094228;28;20428;-55
2021/07/06 12:00:58;;;;;;;4.93;3.03;;;32.50;80.20;;;;;;5076023;28;20043;-56
2021/07/06 12:03:29;;;;;;;6.53;3.10;;;32.50;81.40;;;;;;5093552;28;20101;-56
2021/07/06 12:06:17;;;;;;;8.13;3.38;;;32.40;81.40;;;;;;5075890;28;20044;-56
2021/07/06 12:08:46;;;;;;;5.93;2.78;;;32.40;80.80;;;;;;5075812;28;20052;-56
2021/07/06 12:11:17;;;;;;;4.78;3.60;;;32.50;81.40;;;;;;5093716;28;20043;-56
2021/07/06 12:13:55;;;;;;;13.18;3.75;;;32.40;81.40;;;;;;5093763;28;20052;-56
2021/07/06 12:16:34;;;;;;;8.43;3.63;;;32.40;82.10;;;;;;5089841;28;20048;-58
2021/07/06 12:19:10;;;;;;;7.47;3.13;;;32.50;81.80;;;;;;5093898;28;20048;-56
2021/07/06 12:21:41;;;;;;;6.05;3.47;;;32.50;81.90;;;;;;5075533;28;20048;-56
2021/07/06 12:24:12;;;;;;;4.53;2.65;;;32.50;81.10;;;;;;5094122;28;20458;-58
2021/07/06 12:26:48;;;;;;;6.13;3.20;;;32.50;80.30;;;;;;5075338;28;20093;-58
2021/07/06 12:29:33;;;;;;;7.90;3.28;;;32.60;81.30;;;;;;5074743;28;20054;-58
2021/07/06 12:32:14;;;;;;;5.93;3.58;;;32.60;81.30;;;;;;5085651;28;20051;-58
2021/07/06 12:34:50;;;;;;;11.45;3.58;;;32.70;81.70;;;;;;5093499;28;20275;-58
2021/07/06 12:37:18;;;;;;;5.18;2.70;;;32.60;81.00;;;;;;5075847;28;20040;-58
2021/07/06 12:39:46;;;;;;;5.07;2.83;;;32.60;78.60;;;;;;5075298;28;20486;-58
2021/07/06 12:42:23;;;;;;;9.00;3.05;;;32.60;79.00;;;;;;5075993;28;20123;-58
2021/07/06 12:44:52;;;;;;;8.43;3.30;;;32.60;80.50;;;;;;5076270;28;20123;-59
2021/07/06 12:47:32;;;;;;;9.43;2.70;;;32.50;80.20;;;;;;5092630;28;20428;-58
2021/07/06 12:50:16;;;;;;;6.32;3.30;;;32.40;80.80;;;;;;5046035;28;20132;-58
2021/07/06 12:52:50;;;;;;;6.13;3.35;;;32.30;80.70;;;;;;5053826;28;20152;-58
2021/07/06 12:55:27;;;;;;;16.05;3.25;;;32.40;79.40;;;;;;5054008;28;20395;-58
2021/07/06 12:58:11;;;;;;;5.13;3.25;;;32.40;80.00;;;;;;5053290;28;20083;-58
2021/07/06 13:00:43;;;;;;;5.22;2.67;;;32.50;80.60;;;;;;5053761;28;20083;-58